createdAt,value
2023-08-16T00:00:25.466Z,12.70
2023-08-16T00:05:27.157Z,10.70
2023-08-16T00:10:28.840Z,9.20
2023-08-16T00:15:30.609Z,7.70
2023-08-16T00:20:32.362Z,7.55
2023-08-16T00:25:34.043Z,8.05
2023-08-16T00:30:35.759Z,7.65
2023-08-16T00:35:37.497Z,8.55
2023-08-16T00:40:39.187Z,8.00
2023-08-16T00:45:43.383Z,11.60
2023-08-16T00:50:46.317Z,9.77
2023-08-16T00:55:48.110Z,7.70
2023-08-16T01:00:50.133Z,8.82
2023-08-16T01:05:51.810Z,6.97
2023-08-16T01:10:56.018Z,8.32
2023-08-16T01:16:00.496Z,10.20
2023-08-16T01:21:02.549Z,7.07
2023-08-16T01:26:10.800Z,7.30
2023-08-16T01:31:12.773Z,11.55
2023-08-16T01:36:15.989Z,8.07
2023-08-16T01:41:28.646Z,8.32
2023-08-16T01:46:31.152Z,7.82
2023-08-16T01:51:33.106Z,8.18
2023-08-16T01:56:34.865Z,9.35
2023-08-16T02:01:36.642Z,7.28
2023-08-16T02:06:38.386Z,8.18
2023-08-16T02:11:40.053Z,9.23
2023-08-16T02:16:41.722Z,7.93
2023-08-16T02:21:43.631Z,9.05
2023-08-16T02:26:45.299Z,7.75
2023-08-16T02:31:46.975Z,8.30
2023-08-16T02:36:49.010Z,9.73
2023-08-16T02:41:54.780Z,5.70
2023-08-16T02:51:59.136Z,11.27
2023-08-16T02:57:00.949Z,13.93
2023-08-16T03:02:02.637Z,8.05
2023-08-16T03:07:04.533Z,10.38
2023-08-16T03:12:06.995Z,6.55
2023-08-16T03:17:08.751Z,6.95
2023-08-16T03:22:11.460Z,6.90
2023-08-16T03:27:13.350Z,6.28
2023-08-16T03:32:15.229Z,6.78
2023-08-16T03:37:17.158Z,8.00
2023-08-16T03:42:20.944Z,5.72
2023-08-16T03:47:25.626Z,6.30
2023-08-16T03:52:28.802Z,5.35
2023-08-16T03:57:30.507Z,7.65
2023-08-16T04:02:32.161Z,7.32
2023-08-16T04:07:34.067Z,7.45
2023-08-16T04:12:37.835Z,8.02
2023-08-16T04:17:40.242Z,7.20
2023-08-16T04:22:42.098Z,7.07
2023-08-16T04:27:44.272Z,9.02
2023-08-16T04:32:46.018Z,11.00
2023-08-16T04:37:47.820Z,10.45
2023-08-16T04:42:49.721Z,7.32
2023-08-16T04:47:51.455Z,7.15
2023-08-16T04:52:54.287Z,4.70
2023-08-16T04:57:59.309Z,7.00
2023-08-16T05:03:01.233Z,6.40
2023-08-16T05:08:05.260Z,6.45
2023-08-16T05:13:06.950Z,5.20
2023-08-16T05:18:08.682Z,8.05
2023-08-16T05:23:10.470Z,7.07
2023-08-16T05:28:12.330Z,7.10
2023-08-16T05:33:14.113Z,4.82
2023-08-16T05:38:15.822Z,10.50
2023-08-16T05:43:17.463Z,6.10
2023-08-16T05:48:19.171Z,6.80
2023-08-16T05:53:20.858Z,5.75
2023-08-16T05:58:22.544Z,9.10
2023-08-16T06:03:24.298Z,5.88
2023-08-16T06:08:26.011Z,5.47
2023-08-16T06:13:27.691Z,6.28
2023-08-16T06:18:29.461Z,6.82
2023-08-16T06:23:31.137Z,6.70
2023-08-16T06:28:32.837Z,7.15
2023-08-16T06:33:34.564Z,9.23
2023-08-16T06:38:36.262Z,6.93
2023-08-16T06:43:37.932Z,6.20
2023-08-16T06:48:39.703Z,8.00
2023-08-16T06:53:43.580Z,15.35
2023-08-16T06:58:45.302Z,7.47
2023-08-16T07:03:49.350Z,6.03
2023-08-16T07:08:51.672Z,5.38
2023-08-16T07:13:53.578Z,10.02
2023-08-16T07:18:55.260Z,9.35
2023-08-16T07:23:57.051Z,6.85
2023-08-16T07:28:58.721Z,5.65
2023-08-16T07:34:00.397Z,6.05
2023-08-16T07:39:02.210Z,9.30
2023-08-16T07:44:04.415Z,7.22
2023-08-16T07:49:06.209Z,7.82
2023-08-16T07:54:07.917Z,6.32
2023-08-16T07:59:09.661Z,8.05
2023-08-16T08:04:11.382Z,6.90
2023-08-16T08:09:13.173Z,9.32
2023-08-16T08:14:14.928Z,6.78
2023-08-16T08:19:16.615Z,7.50
2023-08-16T08:24:18.791Z,7.30
2023-08-16T08:29:21.642Z,7.28
2023-08-16T08:34:25.161Z,7.10
2023-08-16T08:39:28.254Z,7.32
2023-08-16T08:44:30.131Z,7.90
2023-08-16T08:49:31.816Z,7.00
2023-08-16T08:54:33.633Z,6.03
2023-08-16T08:59:35.683Z,8.50
2023-08-16T09:04:37.910Z,6.47
2023-08-16T09:09:39.563Z,9.43
2023-08-16T09:14:41.263Z,6.35
2023-08-16T09:19:46.210Z,6.55
2023-08-16T09:24:49.864Z,6.63
2023-08-16T09:29:55.224Z,7.78
2023-08-16T09:34:57.629Z,7.25
2023-08-16T09:40:00.083Z,7.85
2023-08-16T09:45:02.440Z,6.03
2023-08-16T09:50:07.620Z,6.00
2023-08-16T09:55:10.368Z,6.68
2023-08-16T10:00:12.959Z,9.93
2023-08-16T10:10:22.231Z,5.80
2023-08-16T10:15:25.077Z,6.43
2023-08-16T10:20:28.011Z,7.63
2023-08-16T10:25:37.833Z,6.20
2023-08-16T10:31:12.369Z,6.95
2023-08-16T10:36:08.297Z,6.97
2023-08-16T10:41:15.215Z,6.15
2023-08-16T10:46:30.047Z,5.55
2023-08-16T10:51:31.892Z,6.47
2023-08-16T10:56:45.607Z,6.10
2023-08-16T11:01:49.505Z,7.45
2023-08-16T11:07:02.638Z,6.45
2023-08-16T11:12:05.200Z,7.43
2023-08-16T11:17:06.916Z,6.47
2023-08-16T11:22:11.744Z,7.07
2023-08-16T11:27:19.893Z,7.05
2023-08-16T11:32:38.532Z,7.60
2023-08-16T11:37:42.633Z,7.47
2023-08-16T11:42:44.487Z,7.35
2023-08-16T11:47:50.249Z,7.97
2023-08-16T11:53:02.846Z,7.28
2023-08-16T11:58:06.720Z,6.72
2023-08-16T12:03:10.569Z,6.82
2023-08-16T12:08:13.643Z,7.28
2023-08-16T12:13:15.994Z,6.75
2023-08-16T12:18:21.610Z,9.13
2023-08-16T12:23:23.612Z,6.97
2023-08-16T12:28:25.251Z,7.60
2023-08-16T12:33:27.042Z,6.55
2023-08-16T12:38:31.536Z,6.72
2023-08-16T12:48:41.359Z,7.13
2023-08-16T12:53:44.326Z,8.10
2023-08-16T12:58:57.000Z,8.75
2023-08-16T13:04:00.921Z,6.25
2023-08-16T13:09:04.422Z,6.88
2023-08-16T13:14:11.510Z,6.40
2023-08-16T13:19:24.699Z,7.55
2023-08-16T13:45:17.992Z,5.90
2023-08-16T13:50:21.102Z,6.93
2023-08-16T13:55:22.826Z,6.18
2023-08-16T14:00:25.843Z,5.93
2023-08-16T14:05:27.899Z,6.55
2023-08-16T14:10:31.533Z,6.07
2023-08-16T14:15:33.780Z,6.88
2023-08-16T14:20:39.965Z,9.80
2023-08-16T14:25:52.159Z,7.50
2023-08-16T14:30:53.897Z,6.28
2023-08-16T14:35:58.127Z,6.55
2023-08-16T14:40:59.855Z,7.53
2023-08-16T14:46:01.726Z,9.43
2023-08-16T14:51:03.501Z,6.75
2023-08-16T14:56:05.235Z,6.35
2023-08-16T15:01:07.843Z,12.45
2023-08-16T15:06:09.900Z,7.63
2023-08-16T15:11:16.205Z,7.25
2023-08-16T15:16:18.009Z,7.35
2023-08-16T15:21:19.764Z,7.68
2023-08-16T15:26:22.336Z,7.05
2023-08-16T15:31:24.084Z,8.77
2023-08-16T15:36:25.852Z,7.40
2023-08-16T15:41:27.496Z,6.65
2023-08-16T15:46:29.246Z,6.78
2023-08-16T15:51:30.933Z,8.55
2023-08-16T15:56:32.595Z,7.18
2023-08-16T16:01:34.336Z,8.48
2023-08-16T16:06:36.102Z,8.85
2023-08-16T16:11:37.752Z,7.07
2023-08-16T16:16:46.564Z,8.15
2023-08-16T16:21:48.373Z,9.10
2023-08-16T16:26:50.023Z,9.80
2023-08-16T16:31:52.911Z,8.43
2023-08-16T16:36:54.783Z,8.65
2023-08-16T16:41:57.922Z,7.60
2023-08-16T16:47:03.924Z,9.02
2023-08-16T16:52:05.742Z,8.32
2023-08-16T16:57:07.433Z,7.65
2023-08-16T17:02:09.118Z,8.52
2023-08-16T17:07:10.790Z,7.63
2023-08-16T17:12:12.557Z,9.45
2023-08-16T17:17:14.238Z,9.07
2023-08-16T17:22:15.961Z,8.43
2023-08-16T17:27:17.654Z,8.93
2023-08-16T17:32:19.305Z,11.02
2023-08-16T17:37:21.852Z,10.48
2023-08-16T17:42:23.743Z,8.60
2023-08-16T17:47:27.059Z,9.52
2023-08-16T17:52:29.039Z,9.77
2023-08-16T17:57:30.768Z,11.55
2023-08-16T18:02:33.783Z,10.32
2023-08-16T18:07:35.560Z,10.57
2023-08-16T18:12:37.283Z,10.95
2023-08-16T18:17:38.946Z,12.65
2023-08-16T18:22:41.622Z,11.23
2023-08-16T18:27:43.244Z,10.40
2023-08-16T18:32:44.938Z,11.05
2023-08-16T18:37:46.783Z,11.25
2023-08-16T18:42:48.501Z,12.75
2023-08-16T18:47:50.331Z,10.50
2023-08-16T18:52:52.186Z,11.95
2023-08-16T18:57:53.974Z,11.50
2023-08-16T19:02:55.718Z,11.63
2023-08-16T19:07:57.376Z,10.32
2023-08-16T19:12:59.159Z,11.88
2023-08-16T19:18:01.172Z,10.85
2023-08-16T19:23:03.201Z,10.85
2023-08-16T19:28:05.195Z,11.10
2023-08-16T19:33:06.963Z,10.93
2023-08-16T19:38:08.612Z,14.63
2023-08-16T19:43:10.309Z,12.20
2023-08-16T19:48:12.004Z,10.90
2023-08-16T19:53:13.679Z,11.10
2023-08-16T19:58:15.309Z,11.23
2023-08-16T20:03:17.051Z,11.93
2023-08-16T20:08:18.767Z,15.07
2023-08-16T20:13:20.411Z,14.27
2023-08-16T20:18:22.100Z,11.32
2023-08-16T20:23:23.787Z,17.58
2023-08-16T20:28:25.659Z,31.77
2023-08-16T20:33:27.512Z,14.68
2023-08-16T20:38:29.240Z,16.88
2023-08-16T20:43:30.999Z,18.85
2023-08-16T20:48:32.782Z,15.23
2023-08-16T20:53:34.501Z,14.65
2023-08-16T20:58:36.185Z,14.93
2023-08-16T21:03:37.825Z,13.10
2023-08-16T21:08:39.512Z,12.02
2023-08-16T21:13:41.212Z,8.93
2023-08-16T21:18:43.048Z,9.05
2023-08-16T21:23:44.772Z,10.13
2023-08-16T21:28:46.436Z,9.90
2023-08-16T21:33:48.083Z,8.27
2023-08-16T21:38:49.816Z,10.57
2023-08-16T21:43:51.530Z,11.10
2023-08-16T21:48:53.240Z,9.98
2023-08-16T21:53:54.878Z,9.95
2023-08-16T21:58:57.028Z,9.40
2023-08-16T22:03:58.833Z,11.38
2023-08-16T22:09:00.538Z,9.80
2023-08-16T22:14:02.221Z,9.18
2023-08-16T22:19:04.285Z,10.10
2023-08-16T22:24:06.445Z,9.60
2023-08-16T22:29:08.182Z,9.73
2023-08-16T22:34:09.955Z,9.27
2023-08-16T22:39:11.586Z,9.23
2023-08-16T22:44:13.285Z,9.55
2023-08-16T22:49:15.068Z,8.63
2023-08-16T22:54:16.781Z,8.90
2023-08-16T22:59:22.716Z,10.48
2023-08-16T23:04:24.437Z,10.23
2023-08-16T23:09:26.185Z,9.23
2023-08-16T23:14:28.052Z,11.25
2023-08-16T23:19:29.763Z,9.20
2023-08-16T23:24:31.445Z,7.85
2023-08-16T23:29:33.188Z,11.55
2023-08-16T23:34:34.882Z,11.95
2023-08-16T23:39:37.048Z,11.07
2023-08-16T23:44:38.776Z,9.15
2023-08-16T23:49:40.468Z,9.77
2023-08-16T23:54:42.489Z,9.77
2023-08-16T23:59:46.864Z,12.95
